createdAt,value
2018-09-24T00:01:15.530Z,23.61
2018-09-24T00:03:43.284Z,23.29
2018-09-24T00:06:11.002Z,23.61
2018-09-24T00:08:38.814Z,23.61
2018-09-24T00:11:06.913Z,23.61
2018-09-24T00:13:35.008Z,23.61
2018-09-24T00:16:02.688Z,23.60
2018-09-24T00:18:30.374Z,23.61
2018-09-24T00:20:58.175Z,23.59
2018-09-24T00:23:25.949Z,23.62
2018-09-24T00:25:53.657Z,23.60
2018-09-24T00:28:21.401Z,23.60
2018-09-24T00:30:49.111Z,23.60
2018-09-24T00:33:16.930Z,23.59
2018-09-24T00:35:44.673Z,23.59
2018-09-24T00:38:12.407Z,23.59
2018-09-24T00:40:40.123Z,23.59
2018-09-24T00:43:08.260Z,23.58
2018-09-24T00:45:36.030Z,23.57
2018-09-24T00:48:03.762Z,23.57
2018-09-24T00:50:31.492Z,23.57
2018-09-24T00:52:59.225Z,23.56
2018-09-24T00:55:26.919Z,23.56
2018-09-24T00:57:54.618Z,23.57
2018-09-24T01:00:22.571Z,23.56
2018-09-24T01:02:50.426Z,23.55
2018-09-24T01:05:18.242Z,23.56
2018-09-24T01:07:46.010Z,23.55
2018-09-24T01:10:13.759Z,23.54
2018-09-24T01:12:41.477Z,23.54
2018-09-24T01:15:09.776Z,23.53
2018-09-24T01:17:37.842Z,23.47
2018-09-24T01:20:06.125Z,23.53
2018-09-24T01:22:33.885Z,23.28
2018-09-24T01:25:01.668Z,23.53
2018-09-24T01:27:29.486Z,23.53
2018-09-24T01:29:57.317Z,23.52
2018-09-24T01:32:25.070Z,23.53
2018-09-24T01:34:52.857Z,23.51
2018-09-24T01:37:20.675Z,23.52
2018-09-24T01:39:48.462Z,23.51
2018-09-24T01:44:42.936Z,23.49
2018-09-24T01:47:10.741Z,23.49
2018-09-24T01:49:38.491Z,23.49
2018-09-24T01:52:08.363Z,23.49
2018-09-24T01:54:36.046Z,23.49
2018-09-24T01:57:03.809Z,23.49
2018-09-24T01:59:31.922Z,23.47
2018-09-24T02:01:59.883Z,23.47
2018-09-24T02:04:27.636Z,23.47
2018-09-24T02:07:00.644Z,23.48
2018-09-24T02:09:28.550Z,23.47
2018-09-24T02:11:57.923Z,23.47
2018-09-24T02:14:25.967Z,23.46
2018-09-24T02:16:53.725Z,23.47
2018-09-24T02:19:21.473Z,23.46
2018-09-24T02:21:49.189Z,23.47
2018-09-24T02:24:16.892Z,23.46
2018-09-24T02:26:44.621Z,23.45
2018-09-24T02:29:12.331Z,23.45
2018-09-24T02:31:40.204Z,23.44
2018-09-24T02:34:08.625Z,23.45
2018-09-24T02:36:36.352Z,23.44
2018-09-24T02:39:05.214Z,23.44
2018-09-24T02:41:33.014Z,23.43
2018-09-24T02:44:00.780Z,23.44
2018-09-24T02:46:28.449Z,23.42
2018-09-24T02:48:58.608Z,23.43
2018-09-24T02:51:26.292Z,23.42
2018-09-24T02:53:54.011Z,23.41
2018-09-24T02:56:21.725Z,23.40
2018-09-24T02:58:49.426Z,23.41
2018-09-24T03:01:17.146Z,23.40
2018-09-24T03:03:46.931Z,22.35
2018-09-24T03:06:14.665Z,23.41
2018-09-24T03:08:42.390Z,23.39
2018-09-24T03:11:10.145Z,23.39
2018-09-24T03:13:37.870Z,23.41
2018-09-24T03:16:05.578Z,23.40
2018-09-24T03:18:33.295Z,23.39
2018-09-24T03:21:01.025Z,23.38
2018-09-24T03:23:28.750Z,23.31
2018-09-24T03:25:56.569Z,23.38
2018-09-24T03:28:24.332Z,23.37
2018-09-24T03:30:52.064Z,23.37
2018-09-24T03:33:19.777Z,23.36
2018-09-24T03:35:47.453Z,23.36
2018-09-24T03:38:15.207Z,23.36
2018-09-24T03:40:42.933Z,23.36
2018-09-24T03:43:10.707Z,23.36
2018-09-24T03:45:38.459Z,23.36
2018-09-24T03:48:06.359Z,23.35
2018-09-24T03:50:34.176Z,23.34
2018-09-24T03:53:01.927Z,23.33
2018-09-24T03:55:29.672Z,23.33
2018-09-24T03:57:57.390Z,23.33
2018-09-24T04:00:25.132Z,22.93
2018-09-24T04:02:52.947Z,23.32
2018-09-24T04:05:25.958Z,23.32
2018-09-24T04:07:58.978Z,23.32
2018-09-24T04:10:31.937Z,23.30
2018-09-24T04:13:05.103Z,23.30
2018-09-24T04:15:38.105Z,23.31
2018-09-24T04:18:11.131Z,23.30
2018-09-24T04:20:44.248Z,23.30
2018-09-24T04:23:17.369Z,23.29
2018-09-24T04:25:50.518Z,23.30
2018-09-24T04:28:23.796Z,23.29
2018-09-24T04:30:57.005Z,23.28
2018-09-24T04:33:30.251Z,23.28
2018-09-24T04:36:03.349Z,23.27
2018-09-24T04:38:36.518Z,23.28
2018-09-24T04:41:09.661Z,23.27
2018-09-24T04:43:42.822Z,23.26
2018-09-24T04:46:15.747Z,23.27
2018-09-24T04:48:48.875Z,23.25
2018-09-24T04:51:21.964Z,23.25
2018-09-24T04:53:54.793Z,23.25
2018-09-24T04:56:28.009Z,23.24
2018-09-24T04:59:00.915Z,23.22
2018-09-24T05:01:33.982Z,23.22
2018-09-24T05:04:07.114Z,23.22
2018-09-24T05:06:39.915Z,23.21
2018-09-24T05:09:13.541Z,23.20
2018-09-24T05:11:46.653Z,23.20
2018-09-24T05:14:19.722Z,23.20
2018-09-24T05:16:52.745Z,23.20
2018-09-24T05:19:26.916Z,23.20
2018-09-24T05:22:00.047Z,23.19
2018-09-24T05:24:33.028Z,23.20
2018-09-24T05:27:05.988Z,23.19
2018-09-24T05:29:39.036Z,23.20
2018-09-24T05:32:12.175Z,23.19
2018-09-24T05:34:45.273Z,23.18
2018-09-24T05:37:18.113Z,23.18
2018-09-24T05:39:51.052Z,23.18
2018-09-24T05:42:24.157Z,23.17
2018-09-24T05:44:57.292Z,23.17
2018-09-24T05:47:30.443Z,23.17
2018-09-24T05:50:03.476Z,23.17
2018-09-24T05:52:36.557Z,23.16
2018-09-24T05:55:09.690Z,23.16
2018-09-24T05:57:42.777Z,23.15
2018-09-24T06:00:15.953Z,23.17
2018-09-24T06:02:49.037Z,23.17
2018-09-24T06:05:22.138Z,23.16
2018-09-24T06:07:55.177Z,23.16
2018-09-24T06:10:29.303Z,23.15
2018-09-24T06:13:02.162Z,23.16
2018-09-24T06:15:35.157Z,23.16
2018-09-24T06:18:08.207Z,23.16
2018-09-24T06:20:41.294Z,23.15
2018-09-24T06:23:14.122Z,23.17
2018-09-24T06:25:47.118Z,23.17
2018-09-24T06:28:20.251Z,23.17
2018-09-24T06:30:53.049Z,23.17
2018-09-24T06:33:26.082Z,23.16
2018-09-24T06:35:59.059Z,23.15
2018-09-24T06:38:32.010Z,23.15
2018-09-24T06:41:04.968Z,23.15
2018-09-24T06:43:38.014Z,23.16
2018-09-24T06:46:11.233Z,23.14
2018-09-24T06:48:44.089Z,23.15
2018-09-24T06:51:17.004Z,23.16
2018-09-24T06:53:50.064Z,23.18
2018-09-24T06:56:22.850Z,23.19
2018-09-24T06:58:55.905Z,23.18
2018-09-24T07:01:28.787Z,23.17
2018-09-24T07:04:01.941Z,23.17
2018-09-24T07:06:34.762Z,23.15
2018-09-24T07:09:07.638Z,23.17
2018-09-24T07:11:40.790Z,23.17
2018-09-24T07:14:13.742Z,23.19
2018-09-24T07:16:46.826Z,23.21
2018-09-24T07:19:19.721Z,23.16
2018-09-24T07:21:52.826Z,23.16
2018-09-24T07:24:25.787Z,23.19
2018-09-24T07:26:58.801Z,23.19
2018-09-24T07:29:31.798Z,23.22
2018-09-24T07:32:04.619Z,23.19
2018-09-24T07:34:37.589Z,23.21
2018-09-24T07:37:10.406Z,23.22
2018-09-24T07:39:43.351Z,23.20
2018-09-24T07:42:16.438Z,23.20
2018-09-24T07:44:49.322Z,23.21
2018-09-24T07:47:22.390Z,23.19
2018-09-24T07:49:55.293Z,23.20
2018-09-24T07:52:28.249Z,23.22
2018-09-24T07:55:01.281Z,23.26
2018-09-24T07:57:34.333Z,23.26
2018-09-24T08:00:07.227Z,23.26
2018-09-24T08:02:39.998Z,23.26
2018-09-24T08:05:13.109Z,23.26
2018-09-24T08:07:46.024Z,23.24
2018-09-24T08:10:19.124Z,23.21
2018-09-24T08:12:52.279Z,23.20
2018-09-24T08:15:25.285Z,23.24
2018-09-24T08:17:58.367Z,23.25
2018-09-24T08:20:31.429Z,23.25
2018-09-24T08:23:04.370Z,23.28
2018-09-24T08:25:37.337Z,23.21
2018-09-24T08:28:10.253Z,23.24
2018-09-24T08:30:43.338Z,23.27
2018-09-24T08:33:16.429Z,23.24
2018-09-24T08:35:49.342Z,23.25
2018-09-24T08:38:22.435Z,23.29
2018-09-24T08:40:55.237Z,23.33
2018-09-24T08:43:28.297Z,23.25
2018-09-24T08:46:01.212Z,23.25
2018-09-24T08:48:34.310Z,23.25
2018-09-24T08:51:07.249Z,23.30
2018-09-24T08:53:40.045Z,23.27
2018-09-24T08:56:13.091Z,23.28
2018-09-24T08:58:46.125Z,23.24
2018-09-24T09:01:19.032Z,23.24
2018-09-24T09:03:52.102Z,23.22
2018-09-24T09:06:25.119Z,23.21
2018-09-24T09:08:58.043Z,23.22
2018-09-24T09:11:30.878Z,23.30
2018-09-24T09:14:03.733Z,23.26
2018-09-24T09:16:36.794Z,23.28
2018-09-24T09:19:09.878Z,23.24
2018-09-24T09:21:42.921Z,23.23
2018-09-24T09:24:15.819Z,23.32
2018-09-24T09:26:48.591Z,23.26
2018-09-24T09:29:21.636Z,23.22
2018-09-24T09:31:54.399Z,23.23
2018-09-24T09:34:27.198Z,23.29
2018-09-24T09:37:00.217Z,23.32
2018-09-24T09:39:33.176Z,23.36
2018-09-24T09:42:06.153Z,23.38
2018-09-24T09:44:39.298Z,23.39
2018-09-24T09:47:12.152Z,23.37
2018-09-24T09:49:44.999Z,23.42
2018-09-24T09:52:18.048Z,23.39
2018-09-24T09:54:51.052Z,23.35
2018-09-24T09:57:24.210Z,23.42
2018-09-24T09:59:57.318Z,23.45
2018-09-24T10:02:30.288Z,23.45
2018-09-24T10:05:03.125Z,23.44
2018-09-24T10:07:36.167Z,23.41
2018-09-24T10:10:09.267Z,23.45
2018-09-24T10:12:42.347Z,23.46
2018-09-24T10:15:15.198Z,23.49
2018-09-24T10:17:47.976Z,23.44
2018-09-24T10:20:20.750Z,23.45
2018-09-24T10:22:53.693Z,23.51
2018-09-24T10:25:26.788Z,23.49
2018-09-24T10:27:59.653Z,23.52
2018-09-24T10:30:32.538Z,23.54
2018-09-24T10:33:05.551Z,23.51
2018-09-24T10:35:38.369Z,23.54
2018-09-24T10:38:11.365Z,23.47
2018-09-24T10:40:44.390Z,23.44
2018-09-24T10:43:17.345Z,23.44
2018-09-24T10:45:50.381Z,23.47
2018-09-24T10:48:23.264Z,23.43
2018-09-24T10:50:56.323Z,23.40
2018-09-24T10:53:29.461Z,23.41
2018-09-24T10:56:02.539Z,23.42
2018-09-24T10:58:35.639Z,23.42
2018-09-24T11:01:08.437Z,23.49
2018-09-24T11:03:41.322Z,23.52
2018-09-24T11:06:14.577Z,23.54
2018-09-24T11:08:47.678Z,23.54
2018-09-24T11:11:20.754Z,23.58
2018-09-24T11:13:53.786Z,23.58
2018-09-24T11:16:26.874Z,23.59
2018-09-24T11:18:59.950Z,23.61
2018-09-24T11:21:32.976Z,23.60
2018-09-24T11:24:05.830Z,23.52
2018-09-24T11:26:38.911Z,23.49
2018-09-24T11:29:11.822Z,23.47
2018-09-24T11:31:44.714Z,23.49
2018-09-24T11:34:17.722Z,23.48
2018-09-24T11:36:50.769Z,23.51
2018-09-24T11:39:23.653Z,23.53
2018-09-24T11:41:56.698Z,23.51
2018-09-24T11:44:29.616Z,23.49
2018-09-24T11:47:02.528Z,23.47
2018-09-24T11:49:35.585Z,23.45
2018-09-24T11:52:08.455Z,23.47
2018-09-24T11:54:41.394Z,23.49
2018-09-24T11:57:14.314Z,23.55
2018-09-24T11:59:47.390Z,23.54
2018-09-24T12:02:20.198Z,23.49
2018-09-24T12:04:53.270Z,23.48
2018-09-24T12:07:26.860Z,23.44
2018-09-24T12:10:00.594Z,23.52
2018-09-24T12:12:33.397Z,23.57
2018-09-24T12:15:06.321Z,23.57
2018-09-24T12:17:39.345Z,23.55
2018-09-24T12:20:12.445Z,23.60
2018-09-24T12:22:45.509Z,23.54
2018-09-24T12:25:18.421Z,23.52
2018-09-24T12:27:51.474Z,23.49
2018-09-24T12:30:24.427Z,23.49
2018-09-24T12:32:57.458Z,23.54
2018-09-24T12:35:30.541Z,23.51
2018-09-24T12:38:03.553Z,23.51
2018-09-24T12:40:36.725Z,23.60
2018-09-24T12:43:09.699Z,23.56
2018-09-24T12:45:42.560Z,23.52
2018-09-24T12:48:15.608Z,23.48
2018-09-24T12:50:48.686Z,23.47
2018-09-24T12:53:21.563Z,23.45
2018-09-24T12:55:54.653Z,23.44
2018-09-24T12:58:27.545Z,23.44
2018-09-24T13:01:00.633Z,23.44
2018-09-24T13:03:33.734Z,23.46
2018-09-24T13:06:06.742Z,23.45
2018-09-24T13:08:39.748Z,23.42
2018-09-24T13:11:12.852Z,23.46
2018-09-24T13:13:45.866Z,23.53
2018-09-24T13:16:18.685Z,23.48
2018-09-24T13:18:51.697Z,23.48
2018-09-24T13:21:24.594Z,23.57
2018-09-24T13:23:57.464Z,23.63
2018-09-24T13:26:30.224Z,23.63
2018-09-24T13:29:03.111Z,23.68
2018-09-24T13:31:36.201Z,23.70
2018-09-24T13:34:09.121Z,23.74
2018-09-24T13:36:42.204Z,23.75
2018-09-24T13:39:15.107Z,23.73
2018-09-24T13:41:48.136Z,23.62
2018-09-24T13:44:20.861Z,23.56
2018-09-24T13:46:53.852Z,23.55
2018-09-24T13:49:27.025Z,23.53
2018-09-24T13:51:59.810Z,23.52
2018-09-24T13:54:32.844Z,23.58
2018-09-24T13:57:05.753Z,23.71
2018-09-24T13:59:38.561Z,23.76
2018-09-24T14:02:11.469Z,23.72
2018-09-24T14:04:44.497Z,23.70
2018-09-24T14:07:17.429Z,23.65
2018-09-24T14:09:50.249Z,23.69
2018-09-24T14:12:23.232Z,23.77
2018-09-24T14:14:56.124Z,23.68
2018-09-24T14:17:28.899Z,23.65
2018-09-24T14:20:02.014Z,23.75
2018-09-24T14:22:35.076Z,23.81
2018-09-24T14:25:09.117Z,23.74
2018-09-24T14:27:42.123Z,23.64
2018-09-24T14:30:15.125Z,23.63
2018-09-24T14:32:48.208Z,23.73
2018-09-24T14:35:21.379Z,23.68
2018-09-24T14:37:54.460Z,23.68
2018-09-24T14:40:27.529Z,23.74
2018-09-24T14:43:00.475Z,23.74
2018-09-24T14:45:33.550Z,23.77
2018-09-24T14:48:06.602Z,23.77
2018-09-24T14:50:39.709Z,23.79
2018-09-24T14:53:12.889Z,23.84
2018-09-24T14:55:45.926Z,23.84
2018-09-24T14:58:18.990Z,23.84
2018-09-24T15:00:52.067Z,23.81
2018-09-24T15:03:25.105Z,23.83
2018-09-24T15:05:58.200Z,23.83
2018-09-24T15:08:31.218Z,23.82
2018-09-24T15:11:04.300Z,23.78
2018-09-24T15:13:37.405Z,23.72
2018-09-24T15:16:10.458Z,23.75
2018-09-24T15:18:43.486Z,23.71
2018-09-24T15:21:16.434Z,23.73
2018-09-24T15:23:49.549Z,23.74
2018-09-24T15:26:22.659Z,23.66
2018-09-24T15:28:55.791Z,23.66
2018-09-24T15:31:28.888Z,23.70
2018-09-24T15:34:02.100Z,23.70
2018-09-24T15:36:35.360Z,23.66
2018-09-24T15:39:08.413Z,23.62
2018-09-24T15:41:41.352Z,23.58
2018-09-24T15:44:14.510Z,23.60
2018-09-24T15:46:47.609Z,23.59
2018-09-24T15:49:20.680Z,23.56
2018-09-24T15:51:53.794Z,23.57
2018-09-24T15:54:26.905Z,23.55
2018-09-24T15:56:59.930Z,23.56
2018-09-24T15:59:33.000Z,23.54
2018-09-24T16:02:06.213Z,23.59
2018-09-24T16:04:39.338Z,23.56
2018-09-24T16:07:12.387Z,23.55
2018-09-24T16:09:45.471Z,23.57
2018-09-24T16:12:18.609Z,23.56
2018-09-24T16:14:51.793Z,23.54
2018-09-24T16:17:24.549Z,23.53
2018-09-24T16:19:57.825Z,23.53
2018-09-24T16:22:30.837Z,23.51
2018-09-24T16:25:03.918Z,23.52
2018-09-24T16:27:37.015Z,23.54
2018-09-24T16:30:10.169Z,23.49
2018-09-24T16:32:43.133Z,23.49
2018-09-24T16:35:16.254Z,23.48
2018-09-24T16:37:49.281Z,23.46
2018-09-24T16:40:22.377Z,23.47
2018-09-24T16:42:55.540Z,23.47
2018-09-24T16:45:28.762Z,23.46
2018-09-24T16:48:01.921Z,23.44
2018-09-24T16:50:35.186Z,23.44
2018-09-24T16:53:08.276Z,23.43
2018-09-24T16:55:41.339Z,23.44
2018-09-24T16:58:14.165Z,23.43
2018-09-24T17:00:46.965Z,23.43
2018-09-24T17:03:20.070Z,23.41
2018-09-24T17:05:53.125Z,23.39
2018-09-24T17:08:26.170Z,23.39
2018-09-24T17:10:59.284Z,23.38
2018-09-24T17:13:32.289Z,23.38
2018-09-24T17:16:05.216Z,23.36
2018-09-24T17:18:38.262Z,23.35
2018-09-24T17:21:11.268Z,23.37
2018-09-24T17:23:44.117Z,23.37
2018-09-24T17:26:17.146Z,23.34
2018-09-24T17:28:50.077Z,23.35
2018-09-24T17:31:23.226Z,23.34
2018-09-24T17:33:56.285Z,23.34
2018-09-24T17:36:29.310Z,23.34
2018-09-24T17:39:02.425Z,23.35
2018-09-24T17:41:35.359Z,23.32
2018-09-24T17:44:08.429Z,23.31
2018-09-24T17:46:41.341Z,23.31
2018-09-24T17:49:14.332Z,23.32
2018-09-24T17:51:47.235Z,23.32
2018-09-24T17:54:20.173Z,23.31
2018-09-24T17:56:53.132Z,23.31
2018-09-24T17:59:25.928Z,23.31
2018-09-24T18:01:58.977Z,23.32
2018-09-24T18:04:32.115Z,23.30
2018-09-24T18:07:05.035Z,23.29
2018-09-24T18:09:38.092Z,23.21
2018-09-24T18:12:11.111Z,23.29
2018-09-24T18:14:44.210Z,23.27
2018-09-24T18:17:17.199Z,23.29
2018-09-24T18:19:50.140Z,23.27
2018-09-24T18:22:23.109Z,23.27
2018-09-24T18:24:56.050Z,23.28
2018-09-24T18:27:29.073Z,23.26
2018-09-24T18:30:02.133Z,23.26
2018-09-24T18:32:35.192Z,23.25
2018-09-24T18:35:08.185Z,23.24
2018-09-24T18:37:41.048Z,23.24
2018-09-24T18:40:14.164Z,23.23
2018-09-24T18:42:47.144Z,23.24
2018-09-24T18:45:20.070Z,23.24
2018-09-24T18:47:52.884Z,23.22
2018-09-24T18:50:25.928Z,23.23
2018-09-24T18:52:58.916Z,23.22
2018-09-24T18:55:31.874Z,23.21
2018-09-24T18:58:04.876Z,23.21
2018-09-24T19:00:37.858Z,23.21
2018-09-24T19:03:10.937Z,23.20
2018-09-24T19:05:43.844Z,23.18
2018-09-24T19:08:16.864Z,23.19
2018-09-24T19:10:49.730Z,23.20
2018-09-24T19:13:22.705Z,23.21
2018-09-24T19:15:55.627Z,23.21
2018-09-24T19:18:28.496Z,23.19
2018-09-24T19:21:01.578Z,23.19
2018-09-24T19:23:34.511Z,23.17
2018-09-24T19:26:13.607Z,23.19
2018-09-24T19:28:46.646Z,23.16
2018-09-24T19:31:19.717Z,23.16
2018-09-24T19:33:52.676Z,23.16
2018-09-24T19:36:25.548Z,23.15
2018-09-24T19:38:58.622Z,23.17
2018-09-24T19:44:17.113Z,23.15
2018-09-24T19:46:50.421Z,23.16
2018-09-24T19:49:28.075Z,23.15
2018-09-24T19:52:01.076Z,23.14
2018-09-24T19:54:33.960Z,23.13
2018-09-24T19:57:07.143Z,23.14
2018-09-24T19:59:39.961Z,23.13
2018-09-24T20:02:12.935Z,23.12
2018-09-24T20:04:46.118Z,23.11
2018-09-24T20:07:19.211Z,23.10
2018-09-24T20:09:52.257Z,23.10
2018-09-24T20:12:25.243Z,23.11
2018-09-24T20:14:58.376Z,23.08
2018-09-24T20:17:31.384Z,23.06
2018-09-24T20:20:04.384Z,23.10
2018-09-24T20:22:37.435Z,23.08
2018-09-24T20:25:10.503Z,23.06
2018-09-24T20:27:43.611Z,23.07
2018-09-24T20:30:16.705Z,23.07
2018-09-24T20:32:49.799Z,23.06
2018-09-24T20:35:22.943Z,23.06
2018-09-24T20:37:56.050Z,23.05
2018-09-24T20:40:29.088Z,23.04
2018-09-24T20:43:02.296Z,23.04
2018-09-24T20:45:35.296Z,23.02
2018-09-24T20:48:08.373Z,23.00
2018-09-24T20:50:41.364Z,23.01
2018-09-24T20:53:14.522Z,23.01
2018-09-24T20:55:47.413Z,23.01
2018-09-24T20:58:20.435Z,23.00
2018-09-24T21:00:53.664Z,23.01
2018-09-24T21:03:26.762Z,23.01
2018-09-24T21:05:59.618Z,23.02
2018-09-24T21:08:32.731Z,23.00
2018-09-24T21:11:05.844Z,22.99
2018-09-24T21:13:38.829Z,22.99
2018-09-24T21:16:12.056Z,22.98
2018-09-24T21:18:44.988Z,22.98
2018-09-24T21:21:18.105Z,22.99
2018-09-24T21:23:51.266Z,22.96
2018-09-24T21:26:24.367Z,22.99
2018-09-24T21:28:57.527Z,22.95
2018-09-24T21:31:30.460Z,22.95
2018-09-24T21:34:03.679Z,22.97
2018-09-24T21:36:36.758Z,22.96
2018-09-24T21:39:10.771Z,22.94
2018-09-24T21:41:43.865Z,22.95
2018-09-24T21:44:16.953Z,22.93
2018-09-24T21:46:50.063Z,22.95
2018-09-24T21:49:23.249Z,22.94
2018-09-24T21:51:56.364Z,22.93
2018-09-24T21:54:29.512Z,22.93
2018-09-24T21:57:02.471Z,22.94
2018-09-24T21:59:35.612Z,22.93
2018-09-24T22:02:08.737Z,22.91
2018-09-24T22:04:41.870Z,22.90
2018-09-24T22:07:14.815Z,22.89
2018-09-24T22:09:47.952Z,22.88
2018-09-24T22:12:21.000Z,22.90
2018-09-24T22:14:54.332Z,22.87
2018-09-24T22:17:27.358Z,22.88
2018-09-24T22:20:00.473Z,22.88
2018-09-24T22:22:33.464Z,22.88
2018-09-24T22:25:06.577Z,22.88
2018-09-24T22:27:39.738Z,22.87
2018-09-24T22:30:12.849Z,22.87
2018-09-24T22:32:45.966Z,22.87
2018-09-24T22:35:19.109Z,22.87
2018-09-24T22:37:52.099Z,22.84
2018-09-24T22:40:25.190Z,22.84
2018-09-24T22:42:58.302Z,22.84
2018-09-24T22:45:31.398Z,22.84
2018-09-24T22:48:04.526Z,22.84
2018-09-24T22:50:37.462Z,22.84
2018-09-24T22:53:10.361Z,22.84
2018-09-24T22:55:43.399Z,22.84
2018-09-24T22:58:16.606Z,22.82
2018-09-24T23:00:49.637Z,22.81
2018-09-24T23:03:22.821Z,22.81
2018-09-24T23:05:55.682Z,22.79
2018-09-24T23:08:28.539Z,22.80
2018-09-24T23:11:01.600Z,22.81
2018-09-24T23:13:34.739Z,22.80
2018-09-24T23:16:07.827Z,22.82
2018-09-24T23:18:40.762Z,22.82
2018-09-24T23:21:13.876Z,22.80
2018-09-24T23:23:46.978Z,22.77
2018-09-24T23:26:20.119Z,22.77
2018-09-24T23:28:53.314Z,22.76
2018-09-24T23:31:26.267Z,22.78
2018-09-24T23:33:59.345Z,22.77
2018-09-24T23:36:32.464Z,22.75
2018-09-24T23:39:05.513Z,22.75
2018-09-24T23:41:38.662Z,22.75
2018-09-24T23:44:11.714Z,22.74
2018-09-24T23:46:44.844Z,22.74
2018-09-24T23:49:17.829Z,22.74
2018-09-24T23:51:51.006Z,22.74
2018-09-24T23:54:23.931Z,22.73
2018-09-24T23:56:56.995Z,22.72
2018-09-24T23:59:30.091Z,22.72
